Hamburg, LA (71339)

3:34 PM CDT on August 20, 2014 (GMT -0500)
APO - Cottonport | Change Station
CLOSE
Current Station
Personal Weather Station
Location: Cottonport, LA
Elevation: 66 ft
Nearby Weather Stations

Elev 66 ft 30.98 °N, 92.06 °W | Updated 1 second ago

Scattered Clouds
Scattered Clouds
92.7 °F
Feels Like 103 °F
N
3.7
Wind Variable Wind from ESE
Gusts 6.3 mph

Today
High -- | Low -- °F
--% Chance of Precip.
Yesterday
High -- | Low -- °F
Precip. -- in
6:36 AM 7:44 PM
Waning Crescent, 19% visible
Pressure 30.00 in
Visibility 10.0 miles
Clouds Few 3800 ft
Scattered Clouds 4600 ft
Heat Index 103 °F
Dew Point 74 °F
Humidity 55%
Rainfall 0.00 in
Snow Depth Not available.
UV 8 out of 12
Pollen 7.30 out of 12
Air Quality Not available.
Flu Activity Not available.
METAR KESF 201953Z AUTO 09005KT 10SM FEW038 SCT046 33/23 A3001 RMK AO2 SLP159 T03330233

More Conditions Fewer Conditions

Pressure 30.00 in
Visibility 10.0 miles
Clouds Few 3800 ft
Scattered Clouds 4600 ft
Heat Index 103 °F
Dew Point 74 °F
Humidity 55%
Rainfall 0.00 in
Snow Depth Not available.
UV 8 out of 12
Pollen 7.30 out of 12
Air Quality Not available.
Flu Activity Not available.
METAR KESF 201953Z AUTO 09005KT 10SM FEW038 SCT046 33/23 A3001 RMK AO2 SLP159 T03330233

More Conditions Fewer Conditions

Nowcast | as of 2:58 PM CDT on August 20, 2014

Through 5 PM...scattered showers and thunderstorms will continue to move north near 15 mph across the area. The thunderstorms will produce frequent lightning...wind gusts of 35 to 40 mph and rainfall rates near an inch per hour.

×

10-Day Weather Forecast

Almanac

Astronomy

Aug. 20, 2014 Rise Set
Actual Time 6:36 AM CDT 7:44 PM CDT
Civil Twilight 6:11 AM CDT 8:10 PM CDT
Nautical Twilight 5:41 AM CDT 8:39 PM CDT
Astronomical Twilight 5:10 AM CDT 9:10 PM CDT
Moon 2:23 AM CDT 4:23 PM CDT
Length of Visible Light 13h 58m
Length of Day
13h 08m
Tomorrow will be 1m 42s shorter.
Waning Crescent, 19% of the Moon is Illuminated
Today
Waning Crescent
Aug 25
New
Sep 2
First Quarter
Sep 8
Full
Sep 15
Last Quarter

Today's Extremes

State Highs State Lows

Community

WunderPhotos

Upload Photos

1,745,750 photos uploaded!

WunderBlogs® & News

By Dr. Jeff Masters
Director of Meteorology, Weather Underground
By Kari Strenfel
Meteorologist, Weather Underground
By Christopher C. Burt
Weather Historian, Weather Underground
August 20, 2014
August 20, 2014
August 20, 2014

Nearby

Snow Depth

Station Depth Elevation
No new snow has been reported.

Earthquake Activity

City Distance Mag. Time & Date
No recent earthquake activity has been reported nearby.
Minimum magnitude displayed is 2.5.

Coastal Water Temperatures

Place Temperature
No Stations Reporting

Nearby Weather Stations